world map with RIB marked

RIB - Airport

This information may not be accurate or current and is not valid for navigation or flight planning. No warranty of fitness for any purpose is made or implied.

flag of El Beniflag of Bolivia

Donate via PayPal

Additional information is available on the NEW Great Circle Mapper

Location
City:  Riberalta, Vaca Díez, El Beni, Bolivia
Name:Gen. Buech Airport
ICAO / IATA:SLRI / RIB

Details
Type:Airport (Aerodrome, Airfield)
Latitude:11°00'38"S (-11.010555)
Longitude:66°04'22"W (-66.072777)
Elevation:462 ft (141 m)
Runways:1
Longest:5906 ft (1800 m)

Time
Timezone:UTC+30:08 (DST+32:08)
Local Time:

Weather
METAR:SLRI  041400Z 18010KT 9999 SCT015 FEW020CB BKN080 29/24 Q1015
TAF:SLRI  (expired)

Related Locations
Nearby:
Farthest:RPPN: 12426 mi / 19997 km
Thitu Island (Pagasa) [Rancudo Airfield], Spratly Islands, PLW, PH

Find:

   beyond  
but within

Other Information
Maps:
Sources:

  


 


Great Circle Mapper   Great Circle Mapper
Great Circle Mapper FAQ   Great Circle Mapper FAQ
  Karl's Home Page
KLS²   KLS² Home
   GC on Facebook
Airlines of the World   Airlines of the World
Donate via PayPal


Copyright © 2004-2019, Karl L. Swartz. All rights reserved.
All trademarks mentioned herein belong to their respective owners.

Please see credits for attribution and copyright information.

Karl Swartz <karl@kls2.com>
  Powered by FreeBSD
Valid HTML 4.01!
Labeled with ICRA
hCard Microformat
Geo Microformat